createdAt,value
2023-03-22T00:00:38.670Z,26.90
2023-03-22T00:03:07.484Z,22.50
2023-03-22T00:05:37.621Z,26.70
2023-03-22T00:08:25.548Z,25.70
2023-03-22T00:10:55.747Z,21.80
2023-03-22T00:13:25.833Z,24.60
2023-03-22T00:15:55.604Z,23.60
2023-03-22T00:18:30.562Z,23.10
2023-03-22T00:20:59.596Z,26.00
2023-03-22T00:23:28.553Z,28.40
2023-03-22T00:25:56.906Z,29.00
2023-03-22T00:28:24.998Z,28.20
2023-03-22T00:30:59.029Z,28.70
2023-03-22T00:33:29.681Z,29.60
2023-03-22T00:35:59.636Z,28.80
2023-03-22T00:38:41.960Z,25.60
2023-03-22T00:41:18.775Z,28.40
2023-03-22T00:43:48.546Z,27.50
2023-03-22T00:46:19.321Z,29.10
2023-03-22T00:48:48.739Z,28.30
2023-03-22T00:51:16.926Z,26.80
2023-03-22T00:53:45.461Z,30.30
2023-03-22T00:56:15.915Z,28.00
2023-03-22T00:58:48.329Z,24.30
2023-03-22T01:01:17.551Z,28.30
2023-03-22T01:03:50.785Z,27.10
2023-03-22T01:06:19.084Z,30.30
2023-03-22T01:08:50.994Z,29.50
2023-03-22T01:11:21.843Z,23.50
2023-03-22T01:13:50.480Z,26.70
2023-03-22T01:16:18.969Z,27.50
2023-03-22T01:18:47.155Z,25.00
2023-03-22T01:21:15.468Z,29.60
2023-03-22T01:23:43.576Z,29.30
2023-03-22T01:26:11.745Z,28.70
2023-03-22T01:28:40.755Z,29.10
2023-03-22T01:31:08.856Z,28.40
2023-03-22T01:33:37.930Z,27.90
2023-03-22T01:36:06.958Z,29.00
2023-03-22T01:38:35.797Z,26.80
2023-03-22T01:41:04.162Z,28.30
2023-03-22T01:43:35.402Z,26.10
2023-03-22T01:46:04.450Z,28.90
2023-03-22T01:48:42.359Z,27.50
2023-03-22T01:51:13.770Z,28.60
2023-03-22T01:54:07.031Z,26.60
2023-03-22T01:56:36.860Z,27.80
2023-03-22T01:59:05.581Z,27.00
2023-03-22T02:01:52.907Z,27.30
2023-03-22T02:04:23.504Z,26.70
2023-03-22T02:06:54.153Z,26.90
2023-03-22T02:09:22.395Z,26.50
2023-03-22T02:11:59.653Z,25.30
2023-03-22T02:14:37.619Z,25.20
2023-03-22T02:18:57.882Z,26.50
2023-03-22T02:21:52.452Z,28.10
2023-03-22T02:24:49.613Z,27.50
2023-03-22T02:27:20.765Z,28.80
2023-03-22T02:29:56.545Z,28.30
2023-03-22T02:32:52.579Z,26.80
2023-03-22T02:36:07.449Z,24.00
2023-03-22T02:39:16.044Z,25.60
2023-03-22T02:42:15.859Z,28.20
2023-03-22T02:44:50.633Z,27.90
2023-03-22T02:47:49.854Z,28.50
2023-03-22T02:50:46.664Z,28.10
2023-03-22T02:53:21.151Z,27.50
2023-03-22T02:55:54.254Z,27.40
2023-03-22T02:58:38.162Z,29.20
2023-03-22T03:01:09.475Z,29.10
2023-03-22T03:03:37.799Z,27.80
2023-03-22T03:06:10.085Z,28.70
2023-03-22T03:08:38.392Z,29.50
2023-03-22T03:11:10.945Z,28.30
2023-03-22T03:13:40.476Z,31.00
2023-03-22T03:16:13.280Z,29.90
2023-03-22T03:18:55.123Z,29.10
2023-03-22T03:21:45.430Z,27.70
2023-03-22T03:24:28.655Z,28.10
2023-03-22T03:27:04.572Z,26.70
2023-03-22T03:29:40.358Z,27.80
2023-03-22T03:32:31.678Z,25.90
2023-03-22T03:35:22.427Z,27.50
2023-03-22T03:38:21.772Z,27.00
2023-03-22T03:40:53.838Z,29.20
2023-03-22T03:43:23.275Z,28.20
2023-03-22T03:45:53.390Z,28.30
2023-03-22T03:48:23.576Z,28.30
2023-03-22T03:50:52.537Z,27.70
2023-03-22T03:53:20.923Z,25.60
2023-03-22T03:55:49.096Z,21.80
2023-03-22T03:58:17.710Z,24.10
2023-03-22T04:00:47.010Z,26.80
2023-03-22T04:03:21.025Z,27.60
2023-03-22T04:06:18.386Z,26.50
2023-03-22T04:08:53.905Z,26.70
2023-03-22T04:11:27.491Z,23.30
2023-03-22T04:13:58.080Z,27.30
2023-03-22T04:16:26.499Z,26.60
2023-03-22T04:18:55.393Z,26.70
2023-03-22T04:21:23.828Z,26.00
2023-03-22T04:23:59.462Z,26.50
2023-03-22T04:26:29.490Z,17.40
2023-03-22T04:29:18.377Z,25.30
2023-03-22T04:31:56.325Z,21.70
2023-03-22T04:34:29.843Z,21.70
2023-03-22T04:37:03.858Z,24.50
2023-03-22T04:39:34.696Z,23.00
2023-03-22T04:42:21.719Z,24.20
2023-03-22T04:44:53.664Z,27.20
2023-03-22T04:47:22.345Z,23.20
2023-03-22T04:49:50.418Z,22.90
2023-03-22T04:52:19.038Z,24.70
2023-03-22T04:54:52.683Z,21.30
2023-03-22T04:57:21.419Z,23.40
2023-03-22T04:59:50.078Z,23.70
2023-03-22T05:02:19.070Z,25.80
2023-03-22T05:04:49.031Z,23.90
2023-03-22T05:07:29.926Z,24.60
2023-03-22T05:09:59.768Z,24.20
2023-03-22T05:12:28.573Z,23.40
2023-03-22T05:15:14.397Z,22.40
2023-03-22T05:17:43.880Z,22.80
2023-03-22T05:20:11.917Z,21.40
2023-03-22T05:22:42.253Z,21.40
2023-03-22T05:25:11.885Z,21.00
2023-03-22T05:27:42.889Z,18.10
2023-03-22T05:30:31.240Z,18.10
2023-03-22T05:33:04.539Z,20.20
2023-03-22T05:35:38.559Z,19.00
2023-03-22T05:40:39.934Z,18.50
2023-03-22T05:43:08.390Z,20.10
2023-03-22T05:45:40.310Z,20.10
2023-03-22T05:48:15.731Z,20.20
2023-03-22T05:50:44.216Z,17.70
2023-03-22T05:53:13.663Z,19.40
2023-03-22T05:55:50.101Z,18.10
2023-03-22T05:58:24.295Z,17.40
2023-03-22T06:00:52.560Z,18.10
2023-03-22T06:03:27.426Z,18.20
2023-03-22T06:06:13.843Z,17.50
2023-03-22T06:08:47.554Z,16.50
2023-03-22T06:11:23.160Z,16.50
2023-03-22T06:13:51.485Z,16.60
2023-03-22T06:16:20.518Z,17.00
2023-03-22T06:18:49.386Z,15.90
2023-03-22T06:21:18.029Z,16.40
2023-03-22T06:23:46.840Z,16.60
2023-03-22T06:26:19.299Z,14.90
2023-03-22T06:28:47.838Z,16.20
2023-03-22T06:31:16.693Z,13.90
2023-03-22T06:33:57.940Z,15.70
2023-03-22T06:36:30.371Z,14.90
2023-03-22T06:39:14.068Z,15.40
2023-03-22T06:41:45.949Z,15.50
2023-03-22T06:44:14.442Z,14.50
2023-03-22T06:46:51.352Z,13.80
2023-03-22T06:49:44.183Z,14.90
2023-03-22T06:52:16.878Z,15.20
2023-03-22T06:54:45.412Z,14.00
2023-03-22T06:57:13.428Z,14.50
2023-03-22T06:59:41.566Z,14.60
2023-03-22T07:02:13.789Z,14.70
2023-03-22T07:04:46.665Z,15.30
2023-03-22T07:07:15.999Z,13.70
2023-03-22T07:09:44.018Z,12.80
2023-03-22T07:12:13.492Z,12.80
2023-03-22T07:14:42.414Z,12.00
2023-03-22T07:17:32.520Z,11.70
2023-03-22T07:20:02.250Z,12.80
2023-03-22T07:22:31.364Z,13.00
2023-03-22T07:25:01.869Z,12.70
2023-03-22T07:27:50.858Z,12.30
2023-03-22T07:30:21.305Z,14.20
2023-03-22T07:32:50.071Z,11.00
2023-03-22T07:35:19.103Z,12.60
2023-03-22T07:37:48.870Z,12.20
2023-03-22T07:40:26.179Z,13.40
2023-03-22T07:42:56.273Z,13.00
2023-03-22T07:45:43.156Z,11.90
2023-03-22T07:48:49.855Z,10.80
2023-03-22T07:51:38.200Z,10.40
2023-03-22T07:54:07.805Z,10.10
2023-03-22T07:56:36.546Z,9.80
2023-03-22T07:59:05.327Z,9.30
2023-03-22T08:01:33.886Z,9.50
2023-03-22T08:04:08.433Z,11.60
2023-03-22T08:06:58.762Z,11.00
2023-03-22T08:09:28.919Z,10.40
2023-03-22T08:11:58.400Z,10.30
2023-03-22T08:14:36.049Z,10.60
2023-03-22T08:17:07.831Z,9.60
2023-03-22T08:19:36.961Z,9.70
2023-03-22T08:22:08.118Z,8.50
2023-03-22T08:24:59.428Z,10.10
2023-03-22T08:27:31.767Z,8.30
2023-03-22T08:30:01.091Z,8.40
2023-03-22T08:32:29.418Z,8.50
2023-03-22T08:34:58.912Z,9.30
2023-03-22T08:37:27.117Z,8.60
2023-03-22T08:39:55.424Z,9.20
2023-03-22T08:42:38.517Z,8.90
2023-03-22T08:45:10.385Z,10.00
2023-03-22T08:47:44.483Z,8.60
2023-03-22T08:50:13.453Z,7.90
2023-03-22T08:52:49.053Z,7.70
2023-03-22T08:55:24.948Z,8.30
2023-03-22T08:58:22.102Z,8.00
2023-03-22T09:01:29.066Z,7.70
2023-03-22T09:04:04.123Z,8.20
2023-03-22T09:06:32.562Z,6.60
2023-03-22T09:09:03.825Z,7.00
2023-03-22T09:11:35.482Z,7.30
2023-03-22T09:14:03.660Z,7.10
2023-03-22T09:16:39.249Z,6.10
2023-03-22T09:19:07.999Z,6.70
2023-03-22T09:21:36.491Z,6.50
2023-03-22T09:24:21.728Z,8.00
2023-03-22T09:26:53.975Z,7.40
2023-03-22T09:29:22.450Z,7.30
2023-03-22T09:34:28.926Z,7.10
2023-03-22T09:37:02.515Z,7.00
2023-03-22T09:39:38.570Z,6.50
2023-03-22T09:42:10.994Z,7.50
2023-03-22T09:44:41.706Z,6.80
2023-03-22T09:49:53.823Z,7.60
2023-03-22T09:52:22.762Z,6.70
2023-03-22T09:54:52.851Z,7.20
2023-03-22T09:57:36.561Z,6.30
2023-03-22T10:00:27.488Z,6.00
2023-03-22T10:02:57.316Z,5.80
2023-03-22T10:05:27.703Z,5.70
2023-03-22T10:08:17.820Z,5.40
2023-03-22T10:10:46.996Z,5.10
2023-03-22T10:13:33.211Z,5.30
2023-03-22T10:16:06.939Z,5.10
2023-03-22T10:18:40.636Z,5.20
2023-03-22T10:21:15.863Z,5.50
2023-03-22T10:23:44.213Z,5.10
2023-03-22T10:26:29.475Z,4.70
2023-03-22T10:29:04.625Z,4.70
2023-03-22T10:31:33.139Z,5.10
2023-03-22T10:34:33.691Z,5.40
2023-03-22T10:37:02.297Z,5.20
2023-03-22T10:39:34.096Z,5.80
2023-03-22T10:42:08.136Z,5.50
2023-03-22T10:44:48.224Z,5.80
2023-03-22T10:47:18.398Z,5.10
2023-03-22T10:49:54.626Z,4.40
2023-03-22T10:53:05.940Z,4.40
2023-03-22T10:55:39.716Z,4.30
2023-03-22T10:58:22.365Z,3.90
2023-03-22T11:00:53.158Z,4.70
2023-03-22T11:03:36.997Z,4.80
2023-03-22T11:06:13.585Z,3.70
2023-03-22T11:08:43.696Z,4.10
2023-03-22T11:11:32.650Z,4.40
2023-03-22T11:14:06.105Z,3.40
2023-03-22T11:16:46.567Z,3.20
2023-03-22T11:19:17.452Z,3.80
2023-03-22T11:21:46.881Z,3.50
2023-03-22T11:24:15.747Z,3.00
2023-03-22T11:27:03.368Z,3.10
2023-03-22T11:29:46.488Z,3.00
2023-03-22T11:32:37.311Z,8.20
2023-03-22T11:35:18.583Z,3.50
2023-03-22T11:37:48.746Z,2.90
2023-03-22T11:40:21.851Z,3.10
2023-03-22T11:42:54.051Z,3.30
2023-03-22T11:45:30.864Z,3.20
2023-03-22T11:48:06.845Z,3.10
2023-03-22T11:50:36.891Z,5.20
2023-03-22T11:53:09.064Z,2.90
2023-03-22T11:55:37.961Z,3.50
2023-03-22T11:58:27.154Z,2.60
2023-03-22T12:00:58.880Z,3.20
2023-03-22T12:03:31.465Z,3.50
2023-03-22T12:06:04.620Z,2.80
2023-03-22T12:08:42.822Z,2.80
2023-03-22T12:11:33.710Z,2.90
2023-03-22T12:14:23.836Z,3.00
2023-03-22T12:16:59.983Z,2.70
2023-03-22T12:19:48.778Z,3.20
2023-03-22T12:22:18.878Z,2.70
2023-03-22T12:24:46.845Z,2.50
2023-03-22T12:27:30.877Z,2.50
2023-03-22T12:30:01.494Z,2.50
2023-03-22T12:32:36.265Z,2.40
2023-03-22T12:35:19.643Z,3.00
2023-03-22T12:37:50.115Z,2.50
2023-03-22T12:40:24.562Z,2.70
2023-03-22T12:43:00.263Z,2.70
2023-03-22T12:45:39.589Z,2.50
2023-03-22T12:48:15.560Z,2.20
2023-03-22T12:50:58.421Z,2.60
2023-03-22T12:53:28.384Z,2.70
2023-03-22T12:55:56.259Z,2.60
2023-03-22T12:58:24.950Z,2.60
2023-03-22T13:00:56.133Z,2.90
2023-03-22T13:06:03.551Z,2.50
2023-03-22T13:09:01.312Z,2.80
2023-03-22T13:11:32.046Z,2.50
2023-03-22T13:14:00.201Z,2.60
2023-03-22T13:16:49.239Z,2.50
2023-03-22T13:19:52.201Z,2.80
2023-03-22T13:22:28.527Z,3.30
2023-03-22T13:24:59.259Z,2.50
2023-03-22T13:27:38.290Z,2.70
2023-03-22T13:30:22.018Z,2.90
2023-03-22T13:33:04.492Z,2.60
2023-03-22T13:35:51.325Z,3.00
2023-03-22T13:38:19.674Z,2.70
2023-03-22T13:40:52.223Z,2.50
2023-03-22T13:43:24.453Z,2.40
2023-03-22T13:46:18.091Z,2.30
2023-03-22T13:48:47.283Z,2.30
2023-03-22T13:51:23.586Z,2.60
2023-03-22T13:54:09.911Z,2.30
2023-03-22T13:56:44.715Z,2.00
2023-03-22T13:59:33.670Z,3.10
2023-03-22T14:02:28.772Z,2.40
2023-03-22T14:05:16.457Z,2.30
2023-03-22T14:07:50.830Z,4.10
2023-03-22T14:10:24.801Z,3.30
2023-03-22T14:13:16.578Z,2.80
2023-03-22T14:15:49.985Z,2.30
2023-03-22T14:18:34.285Z,2.70
2023-03-22T14:21:07.326Z,2.70
